Time;durP1;ratioP1;P1;durP2;ratioP2;P2;SDS_P1;SDS_P2;PMS_P1;PMS_P2;Temp;Humidity;BMP_temperature;BMP_pressure;BME280_temperature;BME280_humidity;BME280_pressure;Samples;Min_cycle;Max_cycle;Signal;HPM_P1;HPM_P2
2021/04/08 00:00:14;;;;;;;6.53;2.30;;;4.00;91.50;;;;;;4994144;28;20057;-61
2021/04/08 00:02:43;;;;;;;9.13;2.42;;;4.00;91.70;;;;;;5012230;28;20034;-61
2021/04/08 00:05:14;;;;;;;10.20;3.22;;;4.10;91.60;;;;;;4993513;28;20030;-61
2021/04/08 00:07:40;;;;;;;5.68;2.53;;;4.20;91.30;;;;;;5012072;28;20074;-61
2021/04/08 00:10:07;;;;;;;9.80;2.28;;;4.20;91.10;;;;;;5011248;28;20034;-61
2021/04/08 00:12:33;;;;;;;6.35;2.30;;;4.00;91.30;;;;;;4994090;28;20038;-61
2021/04/08 00:14:59;;;;;;;4.45;1.73;;;4.10;91.40;;;;;;5010781;28;20037;-61
2021/04/08 00:17:25;;;;;;;6.53;1.85;;;4.20;91.30;;;;;;4994056;28;20041;-61
2021/04/08 00:19:50;;;;;;;5.20;1.92;;;4.30;91.20;;;;;;5010980;28;20030;-61
2021/04/08 00:22:16;;;;;;;7.55;3.05;;;4.20;91.40;;;;;;4994026;28;20036;-61
2021/04/08 00:24:42;;;;;;;4.00;2.60;;;4.10;91.50;;;;;;5011407;28;20034;-61
2021/04/08 00:27:08;;;;;;;8.80;2.92;;;3.90;92.10;;;;;;4993135;28;20030;-61
2021/04/08 00:29:34;;;;;;;8.52;3.60;;;4.00;91.90;;;;;;5011357;28;20448;-61
2021/04/08 00:31:59;;;;;;;6.32;2.85;;;4.20;91.80;;;;;;4992847;28;20030;-61
2021/04/08 00:34:25;;;;;;;9.98;3.33;;;4.10;91.70;;;;;;5010437;28;20088;-61
2021/04/08 00:36:51;;;;;;;7.68;2.80;;;4.20;91.90;;;;;;5010201;28;20060;-62
2021/04/08 00:39:17;;;;;;;7.45;2.35;;;4.20;91.90;;;;;;5011058;28;20056;-61
2021/04/08 00:41:43;;;;;;;6.32;2.08;;;4.20;92.00;;;;;;5010787;28;20057;-61
2021/04/08 00:44:08;;;;;;;5.85;2.33;;;4.20;91.80;;;;;;5010375;28;20352;-62
2021/04/08 00:46:34;;;;;;;8.20;2.85;;;4.20;91.80;;;;;;4993180;28;20120;-61
2021/04/08 00:49:00;;;;;;;9.43;1.95;;;4.20;91.60;;;;;;5010432;28;20026;-60
2021/04/08 00:51:26;;;;;;;6.28;2.03;;;4.10;91.90;;;;;;4992825;28;20077;-61
2021/04/08 00:53:53;;;;;;;6.22;2.22;;;4.20;92.00;;;;;;5010612;28;20056;-62
2021/04/08 00:56:20;;;;;;;7.28;2.90;;;4.00;92.40;;;;;;4993082;28;20038;-61
2021/04/08 00:58:46;;;;;;;10.70;3.50;;;4.00;92.20;;;;;;5010766;28;20332;-61
2021/04/08 01:01:12;;;;;;;8.02;2.50;;;4.10;92.30;;;;;;4992596;28;20061;-62
2021/04/08 01:03:39;;;;;;;8.70;2.38;;;4.10;92.30;;;;;;4993147;28;20026;-62
2021/04/08 01:06:05;;;;;;;8.48;2.55;;;4.20;92.30;;;;;;5009795;28;20034;-61
2021/04/08 01:08:31;;;;;;;8.68;2.80;;;4.10;92.20;;;;;;5010482;28;20030;-61
2021/04/08 01:10:58;;;;;;;5.78;2.70;;;4.10;92.40;;;;;;4992130;28;20037;-61
2021/04/08 01:13:25;;;;;;;7.30;3.35;;;4.00;92.60;;;;;;5010366;28;20068;-62
2021/04/08 01:15:51;;;;;;;14.68;4.10;;;4.00;92.70;;;;;;5010183;28;20053;-61
2021/04/08 01:18:41;;;;;;;14.23;3.05;;;4.10;92.70;;;;;;4991916;28;20112;-61
2021/04/08 01:21:16;;;;;;;5.03;2.95;;;4.10;92.80;;;;;;5009532;28;20030;-62
2021/04/08 01:24:19;;;;;;;10.82;3.55;;;4.10;92.80;;;;;;4992887;28;20026;-60
2021/04/08 01:27:28;;;;;;;10.32;3.60;;;4.10;92.80;;;;;;4992428;28;20033;-60
2021/04/08 01:30:17;;;;;;;10.35;2.80;;;4.10;92.90;;;;;;4991923;28;20038;-63
2021/04/08 01:32:54;;;;;;;10.50;2.63;;;4.00;92.90;;;;;;5010195;28;20033;-61
2021/04/08 01:35:26;;;;;;;7.55;2.80;;;4.00;93.00;;;;;;5010259;28;20474;-61
2021/04/08 01:38:07;;;;;;;6.72;2.67;;;3.90;93.10;;;;;;5010060;28;20030;-61
2021/04/08 01:40:34;;;;;;;8.73;2.60;;;4.00;93.10;;;;;;4992780;28;20141;-61
2021/04/08 01:43:01;;;;;;;6.35;3.00;;;4.00;93.20;;;;;;4991914;28;20049;-61
2021/04/08 01:45:28;;;;;;;7.13;2.65;;;4.00;93.10;;;;;;4994265;28;20508;-61
2021/04/08 01:47:56;;;;;;;8.65;2.70;;;3.90;93.10;;;;;;5014411;28;20034;-60
2021/04/08 01:50:23;;;;;;;6.65;2.70;;;4.00;93.30;;;;;;5013981;28;20161;-61
2021/04/08 01:52:51;;;;;;;5.43;2.55;;;3.90;93.60;;;;;;4996207;28;20036;-60
2021/04/08 01:55:19;;;;;;;13.05;2.60;;;3.90;93.40;;;;;;5013694;28;20072;-60
2021/04/08 01:57:47;;;;;;;9.85;3.20;;;3.80;93.60;;;;;;5014327;28;20059;-60
2021/04/08 02:00:14;;;;;;;6.82;2.42;;;3.70;93.60;;;;;;4995624;28;20212;-62
2021/04/08 02:02:45;;;;;;;10.27;3.10;;;3.70;93.60;;;;;;4996217;28;20036;-61
2021/04/08 02:05:13;;;;;;;7.15;2.95;;;3.60;93.90;;;;;;5013122;28;20467;-61
2021/04/08 02:07:40;;;;;;;10.23;3.20;;;3.60;94.00;;;;;;4996224;28;20491;-61
2021/04/08 02:10:10;;;;;;;5.88;2.90;;;3.50;93.90;;;;;;5013419;28;20072;-60
2021/04/08 02:12:39;;;;;;;10.38;2.70;;;3.70;93.70;;;;;;4996457;28;20137;-61
2021/04/08 02:15:07;;;;;;;5.32;2.67;;;3.70;93.40;;;;;;4995474;28;20030;-61
2021/04/08 02:17:35;;;;;;;10.07;2.83;;;3.70;93.40;;;;;;5013462;28;20050;-61
2021/04/08 02:20:08;;;;;;;11.43;3.38;;;3.70;93.30;;;;;;5012886;28;20092;-61
2021/04/08 02:22:37;;;;;;;6.47;2.60;;;3.60;93.40;;;;;;5013551;28;20464;-60
2021/04/08 02:25:06;;;;;;;8.15;3.05;;;3.50;93.70;;;;;;4996007;28;20081;-61
2021/04/08 02:27:36;;;;;;;9.65;2.40;;;3.60;93.80;;;;;;5013761;28;20026;-61
2021/04/08 02:30:04;;;;;;;11.48;3.05;;;3.60;93.90;;;;;;5013030;28;20034;-61
2021/04/08 02:32:30;;;;;;;5.95;3.10;;;3.40;94.20;;;;;;4995778;28;20084;-61
2021/04/08 02:34:57;;;;;;;4.45;2.35;;;3.30;94.40;;;;;;4996088;28;20054;-61
2021/04/08 02:37:22;;;;;;;7.05;2.40;;;3.40;94.20;;;;;;5013550;28;20026;-62
2021/04/08 02:39:48;;;;;;;12.02;3.33;;;3.40;94.40;;;;;;4995114;28;20053;-61
2021/04/08 02:42:14;;;;;;;6.53;3.53;;;3.50;94.30;;;;;;5012796;28;20038;-61
2021/04/08 02:44:39;;;;;;;10.45;3.22;;;3.40;94.50;;;;;;5013265;28;20080;-61
2021/04/08 02:47:05;;;;;;;7.88;2.83;;;3.50;94.60;;;;;;4994859;28;20037;-61
2021/04/08 02:49:32;;;;;;;9.13;3.05;;;3.50;94.60;;;;;;5013370;28;20065;-61
2021/04/08 02:52:02;;;;;;;8.40;2.90;;;3.30;94.70;;;;;;4995439;28;20026;-61
2021/04/08 02:54:38;;;;;;;9.75;2.50;;;3.30;95.00;;;;;;5013180;28;20026;-61
2021/04/08 02:57:06;;;;;;;6.90;2.83;;;3.40;95.20;;;;;;4993998;28;20030;-60
2021/04/08 02:59:43;;;;;;;7.63;3.28;;;3.40;95.00;;;;;;4995319;28;20030;-61
2021/04/08 03:02:11;;;;;;;9.20;3.38;;;3.40;95.00;;;;;;4994783;28;20387;-60
2021/04/08 03:04:49;;;;;;;4.85;2.83;;;3.40;95.10;;;;;;4995175;28;20022;-61
2021/04/08 03:07:23;;;;;;;8.30;3.33;;;3.50;95.10;;;;;;4994235;28;20026;-60
2021/04/08 03:09:50;;;;;;;14.95;3.20;;;3.50;95.10;;;;;;4995263;28;20431;-61
2021/04/08 03:12:18;;;;;;;6.70;3.55;;;3.40;95.10;;;;;;5012164;28;20030;-60
2021/04/08 03:14:49;;;;;;;11.10;3.35;;;3.40;95.20;;;;;;4994894;28;20125;-61
2021/04/08 03:17:18;;;;;;;6.72;3.42;;;3.40;95.20;;;;;;5011811;28;20402;-60
2021/04/08 03:19:46;;;;;;;12.27;3.20;;;3.40;95.10;;;;;;4994767;28;20121;-60
2021/04/08 03:22:13;;;;;;;10.20;3.47;;;3.40;95.10;;;;;;4994554;28;20333;-61
2021/04/08 03:24:40;;;;;;;8.13;2.60;;;3.40;95.00;;;;;;4994786;28;20467;-61
2021/04/08 03:27:07;;;;;;;9.25;3.08;;;3.40;95.10;;;;;;4994199;28;20025;-62
2021/04/08 03:29:35;;;;;;;10.65;3.38;;;3.40;94.90;;;;;;4994866;28;20149;-61
2021/04/08 03:32:01;;;;;;;7.90;2.85;;;3.50;94.90;;;;;;4994214;28;20189;-61
2021/04/08 03:34:28;;;;;;;7.30;3.97;;;3.50;94.90;;;;;;4994691;28;20155;-61
2021/04/08 03:36:54;;;;;;;12.18;3.75;;;3.50;94.90;;;;;;4994376;28;20034;-61
2021/04/08 03:39:21;;;;;;;8.80;2.95;;;3.50;94.90;;;;;;5011292;28;20435;-61
2021/04/08 03:41:48;;;;;;;8.88;3.10;;;3.50;95.00;;;;;;5012509;28;20053;-61
2021/04/08 03:44:15;;;;;;;8.10;3.92;;;3.50;95.20;;;;;;4993755;28;20100;-61
2021/04/08 03:46:45;;;;;;;6.28;3.60;;;3.50;95.00;;;;;;4994317;28;20026;-61
2021/04/08 03:49:13;;;;;;;12.23;3.67;;;3.50;95.00;;;;;;4993643;28;20037;-61
2021/04/08 03:51:40;;;;;;;12.73;3.83;;;3.50;94.90;;;;;;5012036;28;20033;-61
2021/04/08 03:54:15;;;;;;;8.27;3.25;;;3.50;95.00;;;;;;5010758;28;20041;-61
2021/04/08 03:56:47;;;;;;;7.05;3.08;;;3.50;95.00;;;;;;5011572;28;20388;-61
2021/04/08 03:59:14;;;;;;;9.38;3.25;;;3.50;95.10;;;;;;5011189;28;20034;-61
2021/04/08 04:01:42;;;;;;;5.60;3.20;;;3.60;95.20;;;;;;4994000;28;20383;-60
2021/04/08 04:04:09;;;;;;;6.13;3.55;;;3.60;95.10;;;;;;4993067;28;20041;-60
2021/04/08 04:06:36;;;;;;;6.95;3.20;;;3.50;95.30;;;;;;4993914;28;20108;-60
2021/04/08 04:09:06;;;;;;;11.88;4.78;;;3.50;95.50;;;;;;5010833;28;20059;-61
2021/04/08 04:11:32;;;;;;;17.13;4.18;;;3.50;95.70;;;;;;4977947;28;20026;-61
2021/04/08 04:14:01;;;;;;;11.45;3.17;;;3.40;95.80;;;;;;5011663;28;20373;-61
2021/04/08 04:16:29;;;;;;;10.25;3.40;;;3.40;96.00;;;;;;5010702;28;20463;-62
2021/04/08 04:18:55;;;;;;;8.02;4.05;;;3.40;96.20;;;;;;5011132;28;20078;-62
2021/04/08 04:21:20;;;;;;;5.45;3.42;;;3.40;96.20;;;;;;5010550;28;20069;-62
2021/04/08 04:23:46;;;;;;;8.05;3.55;;;3.50;96.20;;;;;;4993033;28;20088;-62
2021/04/08 04:26:12;;;;;;;9.02;3.53;;;3.50;96.30;;;;;;4992867;28;20026;-61
2021/04/08 04:28:39;;;;;;;8.32;3.83;;;3.50;96.20;;;;;;4993139;28;20037;-61
2021/04/08 04:31:05;;;;;;;8.52;3.45;;;3.50;96.30;;;;;;4992787;28;20033;-61
2021/04/08 04:33:30;;;;;;;8.45;3.33;;;3.40;96.50;;;;;;5010861;28;20074;-61
2021/04/08 04:35:56;;;;;;;9.18;3.70;;;3.40;96.50;;;;;;4993380;28;20083;-60
2021/04/08 04:38:22;;;;;;;8.40;3.88;;;3.50;96.70;;;;;;5010330;28;20366;-62
2021/04/08 04:40:48;;;;;;;11.07;4.60;;;3.40;96.90;;;;;;5011162;28;20057;-61
2021/04/08 04:43:14;;;;;;;13.20;3.65;;;3.50;96.70;;;;;;5010739;28;20108;-62
2021/04/08 04:45:39;;;;;;;8.23;3.30;;;3.50;96.60;;;;;;5011186;28;20455;-61
2021/04/08 04:48:08;;;;;;;11.95;4.38;;;3.50;96.80;;;;;;4992475;28;20030;-62
2021/04/08 04:50:34;;;;;;;9.38;3.95;;;3.50;97.00;;;;;;4993220;28;20088;-61
2021/04/08 04:52:59;;;;;;;4.53;2.88;;;3.60;96.90;;;;;;5010600;28;20030;-61
2021/04/08 04:55:25;;;;;;;6.97;3.22;;;3.50;96.90;;;;;;5010439;28;20287;-61
2021/04/08 04:57:50;;;;;;;12.63;3.72;;;3.60;96.80;;;;;;4993321;28;20026;-61
2021/04/08 05:00:17;;;;;;;10.45;4.40;;;3.60;96.60;;;;;;5010375;28;20037;-61
2021/04/08 05:02:42;;;;;;;10.45;3.72;;;3.70;96.80;;;;;;4993224;28;20427;-61
2021/04/08 05:05:08;;;;;;;8.40;3.38;;;3.70;96.80;;;;;;4992440;28;20463;-61
2021/04/08 05:07:34;;;;;;;9.02;3.72;;;3.60;96.90;;;;;;5011269;28;20018;-61
2021/04/08 05:09:59;;;;;;;10.60;4.18;;;3.80;96.80;;;;;;5010525;28;20029;-61
2021/04/08 05:12:25;;;;;;;15.60;4.35;;;3.70;96.70;;;;;;4992502;28;20423;-62
2021/04/08 05:14:51;;;;;;;9.75;4.15;;;3.80;96.60;;;;;;5011146;28;20467;-62
2021/04/08 05:17:17;;;;;;;15.35;4.57;;;4.00;96.40;;;;;;4993086;28;20475;-61
2021/04/08 05:19:43;;;;;;;17.48;4.53;;;4.00;96.30;;;;;;5010848;28;20054;-62
2021/04/08 05:22:08;;;;;;;9.85;4.80;;;4.10;96.40;;;;;;4992959;28;20029;-62
2021/04/08 05:24:34;;;;;;;17.02;4.03;;;4.10;96.50;;;;;;4994120;28;20044;-65
2021/04/08 05:27:00;;;;;;;9.20;4.05;;;4.10;96.40;;;;;;5011590;28;20044;-63
2021/04/08 05:29:26;;;;;;;15.27;4.68;;;4.10;96.30;;;;;;5011089;28;20040;-62
2021/04/08 05:31:51;;;;;;;12.13;4.32;;;4.00;96.40;;;;;;4993858;28;20391;-63
2021/04/08 05:34:17;;;;;;;13.23;3.92;;;4.10;96.50;;;;;;5010938;28;20030;-61
2021/04/08 05:36:43;;;;;;;10.27;4.22;;;4.20;96.10;;;;;;4993539;28;20336;-61
2021/04/08 05:39:08;;;;;;;10.93;4.75;;;4.20;95.90;;;;;;5010127;28;20048;-63
2021/04/08 05:41:34;;;;;;;8.18;4.22;;;4.10;96.10;;;;;;5010920;28;20060;-61
2021/04/08 05:44:02;;;;;;;11.43;4.28;;;4.20;96.10;;;;;;4993266;28;20026;-61
2021/04/08 05:46:28;;;;;;;9.68;3.72;;;4.30;95.80;;;;;;5010550;28;20022;-62
2021/04/08 05:48:53;;;;;;;8.88;4.30;;;4.20;96.10;;;;;;5010370;28;20387;-61
2021/04/08 05:51:19;;;;;;;10.77;4.53;;;4.10;95.90;;;;;;4992657;28;20434;-63
2021/04/08 05:53:45;;;;;;;8.07;3.85;;;4.10;96.00;;;;;;5011816;28;20092;-63
2021/04/08 05:56:10;;;;;;;8.82;4.30;;;4.10;96.10;;;;;;5011543;28;20037;-61
2021/04/08 05:58:37;;;;;;;12.10;4.40;;;4.20;96.00;;;;;;4994458;28;20026;-62
2021/04/08 06:01:03;;;;;;;9.50;4.40;;;4.20;95.70;;;;;;4994103;28;20107;-62
2021/04/08 06:03:29;;;;;;;14.63;4.53;;;4.30;95.50;;;;;;4992826;28;20566;-62
2021/04/08 06:05:54;;;;;;;12.23;5.03;;;4.20;95.40;;;;;;4993278;28;20022;-62
2021/04/08 06:08:20;;;;;;;7.63;3.25;;;4.10;95.20;;;;;;4993085;28;20108;-62
2021/04/08 06:10:46;;;;;;;8.82;4.68;;;4.00;95.30;;;;;;4993492;28;20030;-62
2021/04/08 06:13:12;;;;;;;18.10;4.28;;;4.00;95.30;;;;;;4992604;28;20108;-63
2021/04/08 06:15:38;;;;;;;24.75;4.68;;;4.10;95.40;;;;;;4993527;28;20029;-62
2021/04/08 06:18:03;;;;;;;10.73;4.30;;;4.00;95.50;;;;;;4992604;28;20022;-62
2021/04/08 06:20:29;;;;;;;12.50;4.63;;;4.00;95.50;;;;;;5010210;28;20129;-62
2021/04/08 06:22:57;;;;;;;14.15;5.35;;;4.00;95.30;;;;;;4992056;28;20060;-61
2021/04/08 06:25:24;;;;;;;7.90;3.67;;;4.00;95.70;;;;;;4991923;28;20077;-61
2021/04/08 06:27:50;;;;;;;9.15;4.90;;;4.00;95.50;;;;;;4992326;28;20112;-61
2021/04/08 06:30:17;;;;;;;9.65;4.40;;;4.00;95.40;;;;;;4991955;28;20083;-63
2021/04/08 06:32:42;;;;;;;16.58;5.07;;;4.00;95.50;;;;;;5012197;28;20029;-62
2021/04/08 06:35:09;;;;;;;11.50;4.57;;;4.00;95.60;;;;;;5014516;28;20030;-62
2021/04/08 06:37:34;;;;;;;9.32;4.45;;;4.10;95.60;;;;;;5012663;28;20030;-61
2021/04/08 06:40:00;;;;;;;14.15;4.93;;;4.10;95.60;;;;;;4996144;28;20173;-62
2021/04/08 06:42:27;;;;;;;11.45;4.82;;;4.30;95.40;;;;;;5013415;28;20034;-62
2021/04/08 06:44:53;;;;;;;11.85;4.57;;;4.30;95.30;;;;;;4996238;28;20030;-62
2021/04/08 06:47:32;;;;;;;14.52;4.97;;;4.40;95.00;;;;;;4995435;28;20022;-62
2021/04/08 06:50:04;;;;;;;6.97;4.10;;;4.50;95.20;;;;;;4995876;28;20034;-62
2021/04/08 06:52:30;;;;;;;21.23;6.05;;;4.40;95.00;;;;;;5012725;28;20022;-65
2021/04/08 06:54:56;;;;;;;18.48;6.80;;;4.80;99.90;;;;;;5013375;28;20048;-69
2021/04/08 06:57:22;;;;;;;10.82;4.68;;;6.70;99.90;;;;;;5011414;28;20060;-62
2021/04/08 06:59:48;;;;;;;8.18;4.32;;;9.00;99.90;;;;;;5013110;28;20030;-62
2021/04/08 07:02:19;;;;;;;12.50;5.10;;;7.00;92.90;;;;;;5010887;28;20472;-61
2021/04/08 07:04:45;;;;;;;15.20;4.90;;;6.20;94.00;;;;;;5011891;28;20030;-62
2021/04/08 07:07:10;;;;;;;12.02;6.05;;;5.70;93.50;;;;;;5012818;28;20033;-62
2021/04/08 07:09:36;;;;;;;9.23;5.13;;;5.30;94.20;;;;;;5011695;28;20034;-62
2021/04/08 07:12:04;;;;;;;12.35;5.78;;;5.30;94.50;;;;;;5013403;28;20085;-72
2021/04/08 07:14:30;;;;;;;12.15;5.32;;;5.30;94.40;;;;;;5011400;28;20026;-62
2021/04/08 07:16:55;;;;;;;13.77;5.38;;;5.20;94.50;;;;;;5013012;28;20037;-62
2021/04/08 07:19:21;;;;;;;11.73;4.97;;;5.20;94.80;;;;;;5012016;28;20030;-62
2021/04/08 07:21:47;;;;;;;10.63;4.90;;;5.20;94.60;;;;;;5013688;28;20033;-62
2021/04/08 07:24:17;;;;;;;13.82;5.95;;;5.30;94.60;;;;;;5013141;28;20038;-61
2021/04/08 07:26:53;;;;;;;11.02;4.75;;;5.40;94.40;;;;;;5011698;28;20061;-62
2021/04/08 07:29:20;;;;;;;12.63;5.38;;;5.50;93.80;;;;;;5012088;28;20145;-61
2021/04/08 07:31:46;;;;;;;9.23;4.90;;;5.40;94.00;;;;;;5012283;28;20026;-61
2021/04/08 07:34:12;;;;;;;12.20;5.65;;;5.40;93.90;;;;;;5012611;28;20026;-62
2021/04/08 07:36:39;;;;;;;13.95;5.20;;;5.50;93.90;;;;;;5011742;28;20204;-62
2021/04/08 07:39:17;;;;;;;14.15;4.90;;;5.50;93.80;;;;;;5011128;28;20041;-62
2021/04/08 07:41:57;;;;;;;14.23;4.32;;;5.50;93.70;;;;;;5011193;28;20145;-62
2021/04/08 07:44:23;;;;;;;12.90;4.93;;;5.70;93.60;;;;;;5004279;28;20033;-63
2021/04/08 07:46:48;;;;;;;18.67;6.28;;;5.60;93.20;;;;;;4994736;28;20120;-63
2021/04/08 07:49:29;;;;;;;12.35;4.78;;;5.70;93.40;;;;;;5012233;28;20026;-62
2021/04/08 07:52:13;;;;;;;8.68;4.22;;;5.90;93.00;;;;;;5012294;28;20353;-62
2021/04/08 07:54:40;;;;;;;11.55;4.10;;;6.10;92.60;;;;;;5009877;28;20026;-62
2021/04/08 07:57:06;;;;;;;14.80;4.70;;;6.00;92.40;;;;;;5010756;28;20030;-62
2021/04/08 07:59:31;;;;;;;12.25;4.20;;;6.10;92.60;;;;;;5011131;28;20026;-63
2021/04/08 08:02:06;;;;;;;13.90;4.05;;;6.10;92.50;;;;;;5012331;28;20486;-62
2021/04/08 08:04:32;;;;;;;10.85;5.07;;;6.10;92.10;;;;;;5011433;28;20123;-62
2021/04/08 08:06:59;;;;;;;11.90;4.57;;;6.20;92.30;;;;;;5010244;28;20399;-62
2021/04/08 08:09:26;;;;;;;14.00;4.97;;;6.40;91.90;;;;;;5009947;28;20068;-62
2021/04/08 08:11:54;;;;;;;8.52;4.03;;;6.00;92.40;;;;;;5010494;28;20030;-61
2021/04/08 08:14:37;;;;;;;6.40;3.75;;;6.30;92.20;;;;;;5009445;28;20038;-61
2021/04/08 08:17:09;;;;;;;13.88;5.28;;;6.50;91.70;;;;;;5011552;28;20026;-61
2021/04/08 08:19:37;;;;;;;11.30;4.85;;;6.50;91.50;;;;;;5011228;28;20034;-62
2021/04/08 08:22:04;;;;;;;7.93;4.32;;;6.60;91.20;;;;;;5010240;28;20076;-62
2021/04/08 08:24:31;;;;;;;10.45;3.95;;;6.70;91.20;;;;;;5010939;28;20109;-62
2021/04/08 08:26:58;;;;;;;10.88;4.07;;;6.90;90.90;;;;;;5011526;28;20048;-62
2021/04/08 08:29:29;;;;;;;7.95;3.75;;;7.00;90.20;;;;;;5009257;28;20032;-62
2021/04/08 08:32:02;;;;;;;;;;;7.00;90.40;;;;;;5010159;28;20026;-62
2021/04/08 08:34:29;;;;;;;9.10;4.85;;;7.20;90.20;;;;;;5003491;28;19924;-63
2021/04/08 08:36:58;;;;;;;17.20;4.95;;;7.20;88.90;;;;;;5005057;28;20069;-63
2021/04/08 08:39:36;;;;;;;16.85;5.40;;;7.40;89.40;;;;;;4981275;28;20038;-63
2021/04/08 08:42:05;;;;;;;11.55;4.32;;;7.10;89.30;;;;;;4998681;28;20039;-62
2021/04/08 08:44:32;;;;;;;7.93;3.33;;;7.60;88.00;;;;;;4982145;28;20532;-67
2021/04/08 08:47:24;;;;;;;8.75;2.95;;;8.30;99.90;;;;;;4976138;28;20356;-62
2021/04/08 08:49:58;;;;;;;19.05;3.80;;;9.60;94.40;;;;;;4993277;28;20053;-62
2021/04/08 08:52:26;;;;;;;12.05;3.50;;;9.60;82.80;;;;;;5029893;28;20040;-62
2021/04/08 08:54:53;;;;;;;12.50;3.15;;;9.40;78.60;;;;;;5023197;28;20022;-62
2021/04/08 08:57:20;;;;;;;8.82;3.22;;;8.50;79.90;;;;;;5010230;28;20120;-64
2021/04/08 08:59:46;;;;;;;9.10;2.85;;;8.50;80.20;;;;;;5011643;28;20038;-64
2021/04/08 09:02:13;;;;;;;5.18;2.60;;;8.60;79.50;;;;;;5010573;28;20029;-64
2021/04/08 09:04:39;;;;;;;10.32;3.50;;;9.10;78.10;;;;;;5009711;28;20172;-62
2021/04/08 09:07:09;;;;;;;8.73;2.55;;;9.40;76.90;;;;;;5010132;28;20108;-62
2021/04/08 09:09:38;;;;;;;7.45;2.30;;;9.20;75.40;;;;;;4992269;28;20040;-62
2021/04/08 09:12:08;;;;;;;7.10;2.40;;;9.30;74.50;;;;;;4992476;28;20187;-62
2021/04/08 09:14:35;;;;;;;9.23;3.35;;;9.30;74.10;;;;;;4992044;28;20030;-62
2021/04/08 09:17:02;;;;;;;14.35;3.20;;;9.00;74.70;;;;;;4991936;28;20033;-64
2021/04/08 09:19:33;;;;;;;11.88;2.50;;;9.00;73.50;;;;;;4991445;28;20025;-63
2021/04/08 09:22:05;;;;;;;7.80;2.40;;;8.70;72.90;;;;;;4983866;28;20034;-62
2021/04/08 09:24:33;;;;;;;;;;;8.40;72.50;;;;;;4999536;28;20022;-62
2021/04/08 09:27:01;;;;;;;5.18;1.83;;;8.30;73.00;;;;;;5014447;28;20041;-62
2021/04/08 09:29:49;;;;;;;9.52;3.38;;;8.00;73.50;;;;;;4980985;28;20085;-63
2021/04/08 09:32:29;;;;;;;11.85;2.58;;;7.90;72.40;;;;;;4982773;28;20128;-62
2021/04/08 09:35:04;;;;;;;10.00;2.30;;;8.00;72.80;;;;;;4979990;28;20360;-62
2021/04/08 09:37:45;;;;;;;9.40;2.85;;;8.10;74.20;;;;;;4981633;28;20026;-63
2021/04/08 09:40:24;;;;;;;9.37;2.30;;;7.50;73.50;;;;;;4981394;28;20066;-62
2021/04/08 09:43:03;;;;;;;9.40;2.05;;;7.30;73.70;;;;;;4997536;28;20014;-62
2021/04/08 09:45:30;;;;;;;6.22;2.50;;;7.20;73.60;;;;;;5000973;28;20034;-62
2021/04/08 09:48:17;;;;;;;7.72;1.95;;;7.50;74.30;;;;;;5009341;28;20029;-63
2021/04/08 09:50:54;;;;;;;4.43;1.60;;;7.50;74.40;;;;;;4980067;28;20057;-62
2021/04/08 09:53:23;;;;;;;9.55;1.95;;;7.50;73.40;;;;;;4982458;28;20029;-62
2021/04/08 09:55:56;;;;;;;8.13;2.05;;;7.60;74.10;;;;;;5009123;28;20034;-64
2021/04/08 09:58:27;;;;;;;7.35;2.40;;;7.60;73.30;;;;;;4992628;28;20026;-62
2021/04/08 10:00:56;;;;;;;7.97;2.30;;;7.60;72.50;;;;;;4972773;28;20041;-61
2021/04/08 10:03:30;;;;;;;6.70;2.28;;;7.70;76.20;;;;;;4972526;28;20607;-63
2021/04/08 10:05:57;;;;;;;6.13;2.28;;;7.90;71.60;;;;;;4972873;28;20388;-62
2021/04/08 10:08:24;;;;;;;3.20;1.50;;;8.00;71.60;;;;;;4995475;28;20110;-62
2021/04/08 10:10:51;;;;;;;7.80;2.45;;;8.00;70.90;;;;;;5003999;28;20026;-62
2021/04/08 10:13:36;;;;;;;7.65;2.58;;;8.10;71.00;;;;;;5001836;28;20431;-62
2021/04/08 10:16:08;;;;;;;6.38;2.70;;;8.20;69.90;;;;;;4970877;28;20030;-62
2021/04/08 10:18:34;;;;;;;6.15;2.30;;;8.20;70.50;;;;;;4992683;28;20026;-63
2021/04/08 10:21:03;;;;;;;5.40;2.53;;;8.20;71.10;;;;;;4995357;28;20057;-63
2021/04/08 10:23:36;;;;;;;5.55;2.40;;;8.90;81.50;;;;;;4982818;28;20026;-63
2021/04/08 10:26:10;;;;;;;4.38;2.15;;;8.50;70.60;;;;;;5000759;28;20105;-62
2021/04/08 10:28:47;;;;;;;6.28;3.25;;;8.30;71.20;;;;;;4992734;28;20022;-62
2021/04/08 10:31:25;;;;;;;7.20;2.40;;;8.20;71.10;;;;;;4975904;28;20026;-63
2021/04/08 10:34:14;;;;;;;5.72;2.58;;;8.20;70.30;;;;;;4985141;28;20080;-62
2021/04/08 10:36:52;;;;;;;8.18;2.40;;;8.10;70.00;;;;;;5012774;28;20109;-61
2021/04/08 10:39:22;;;;;;;12.35;3.25;;;8.10;71.40;;;;;;5009864;28;20121;-63
2021/04/08 10:41:57;;;;;;;12.38;3.33;;;8.00;70.70;;;;;;4973809;28;20051;-62
2021/04/08 10:44:35;;;;;;;5.53;2.38;;;7.80;71.40;;;;;;4994197;28;20046;-62
2021/04/08 10:47:22;;;;;;;8.65;2.50;;;7.80;71.80;;;;;;5012920;28;20088;-62
2021/04/08 10:49:59;;;;;;;9.02;3.00;;;8.10;71.10;;;;;;4990987;28;20057;-62
2021/04/08 10:52:30;;;;;;;8.35;2.78;;;8.00;68.90;;;;;;4987816;28;20097;-63
2021/04/08 10:54:58;;;;;;;5.15;2.45;;;7.80;69.50;;;;;;4993098;28;20030;-63
2021/04/08 10:57:24;;;;;;;4.45;2.58;;;7.90;69.00;;;;;;4992961;28;20054;-63
2021/04/08 10:59:51;;;;;;;7.53;2.38;;;8.10;68.60;;;;;;4990180;28;20587;-63
2021/04/08 11:02:30;;;;;;;4.45;2.15;;;8.30;68.60;;;;;;4990810;28;20105;-63
2021/04/08 11:04:58;;;;;;;6.25;2.83;;;8.40;65.10;;;;;;4991072;28;20037;-63
2021/04/08 11:07:25;;;;;;;4.07;1.95;;;8.40;62.90;;;;;;4991049;28;20106;-63
2021/04/08 11:09:52;;;;;;;8.20;2.22;;;8.50;60.70;;;;;;4971223;28;20100;-61
2021/04/08 11:12:26;;;;;;;5.53;1.73;;;8.50;62.30;;;;;;4971467;28;20027;-63
2021/04/08 11:14:51;;;;;;;7.07;1.65;;;8.60;60.90;;;;;;4972726;28;20018;-63
2021/04/08 11:17:18;;;;;;;5.82;1.42;;;8.60;60.90;;;;;;4971416;28;20034;-61
2021/04/08 11:19:45;;;;;;;4.47;1.10;;;8.50;58.60;;;;;;4971634;28;20035;-64
2021/04/08 11:22:32;;;;;;;2.83;1.30;;;8.40;57.40;;;;;;4973072;28;20035;-61
2021/04/08 11:24:58;;;;;;;11.60;1.90;;;8.30;57.00;;;;;;4971720;28;20027;-62
2021/04/08 11:27:44;;;;;;;7.60;1.77;;;8.40;57.50;;;;;;4972982;28;20023;-63
2021/04/08 11:30:20;;;;;;;5.18;1.90;;;8.40;58.00;;;;;;4971948;28;20032;-62
2021/04/08 11:32:50;;;;;;;3.53;1.90;;;8.40;58.50;;;;;;4972247;28;20023;-62
2021/04/08 11:35:23;;;;;;;4.38;1.60;;;8.30;58.80;;;;;;4971484;28;20034;-62
2021/04/08 11:37:49;;;;;;;3.92;2.15;;;8.20;58.50;;;;;;4970478;28;20033;-62
2021/04/08 11:40:21;;;;;;;8.27;2.63;;;8.60;58.70;;;;;;4973258;28;20063;-62
2021/04/08 11:42:46;;;;;;;6.95;2.50;;;8.60;58.00;;;;;;4991942;28;20058;-62
2021/04/08 11:45:20;;;;;;;6.82;2.10;;;8.50;58.10;;;;;;4975164;28;20077;-62
2021/04/08 11:48:04;;;;;;;7.28;2.08;;;8.50;58.30;;;;;;4992046;28;20380;-64
2021/04/08 11:50:37;;;;;;;9.32;2.22;;;8.40;58.60;;;;;;4975877;28;20483;-63
2021/04/08 11:53:34;;;;;;;10.00;1.95;;;8.40;58.30;;;;;;4975953;28;20122;-63
2021/04/08 11:55:59;;;;;;;3.08;1.52;;;8.60;58.10;;;;;;4974307;28;20034;-62
2021/04/08 11:58:28;;;;;;;6.97;2.40;;;8.50;57.70;;;;;;4975363;28;20105;-62
2021/04/08 12:01:13;;;;;;;4.90;2.65;;;8.70;57.40;;;;;;4974917;28;20030;-62
2021/04/08 12:03:40;;;;;;;8.00;2.47;;;8.70;57.70;;;;;;4983560;28;20133;-62
2021/04/08 12:06:15;;;;;;;4.07;1.98;;;8.90;57.30;;;;;;5012562;28;20135;-63
2021/04/08 12:08:46;;;;;;;10.02;2.22;;;9.60;57.40;;;;;;5011871;28;20041;-63
2021/04/08 12:11:13;;;;;;;4.20;1.73;;;10.00;56.60;;;;;;4994475;28;20034;-64
2021/04/08 12:13:47;;;;;;;5.78;2.13;;;9.80;55.60;;;;;;4993432;28;20269;-62
2021/04/08 12:16:25;;;;;;;5.82;2.33;;;9.60;56.50;;;;;;4993872;28;20022;-62
2021/04/08 12:18:51;;;;;;;5.22;2.53;;;9.60;55.70;;;;;;4992570;28;20029;-62
2021/04/08 12:21:18;;;;;;;6.70;2.20;;;9.70;56.00;;;;;;5011088;28;20089;-70
2021/04/08 12:23:44;;;;;;;4.93;1.77;;;9.70;55.80;;;;;;4993311;28;20030;-63
2021/04/08 12:26:10;;;;;;;5.68;2.00;;;9.80;56.60;;;;;;5011404;28;20061;-62
2021/04/08 12:28:36;;;;;;;7.32;2.40;;;9.60;55.30;;;;;;5011136;28;20467;-63
2021/04/08 12:31:02;;;;;;;7.13;2.05;;;9.50;55.00;;;;;;5010755;28;20121;-61
2021/04/08 12:33:32;;;;;;;10.02;2.83;;;9.30;55.90;;;;;;5011022;28;20132;-62
2021/04/08 12:36:00;;;;;;;8.10;2.58;;;9.60;55.60;;;;;;4987368;28;20196;-62
2021/04/08 12:38:26;;;;;;;3.80;1.90;;;9.50;55.80;;;;;;4984427;28;20387;-62
2021/04/08 12:40:53;;;;;;;7.70;2.22;;;9.40;55.20;;;;;;5000049;28;20050;-61
2021/04/08 12:43:19;;;;;;;5.70;1.13;;;9.10;55.30;;;;;;4981204;28;20109;-62
2021/04/08 12:45:45;;;;;;;6.90;3.30;;;9.80;83.00;;;;;;4999129;28;20080;-61
2021/04/08 12:48:11;;;;;;;4.88;2.13;;;9.70;56.50;;;;;;4983211;28;20050;-62
2021/04/08 12:50:39;;;;;;;5.88;1.85;;;9.70;56.10;;;;;;4997979;28;20026;-63
2021/04/08 12:53:05;;;;;;;5.72;2.40;;;9.80;55.40;;;;;;5004301;28;20095;-61
2021/04/08 12:55:31;;;;;;;9.95;3.15;;;9.70;54.80;;;;;;4988835;28;20094;-62
2021/04/08 12:57:57;;;;;;;16.25;2.22;;;9.50;55.20;;;;;;5003371;28;20080;-62
2021/04/08 13:00:24;;;;;;;5.25;2.70;;;9.50;55.80;;;;;;5010247;28;20034;-62
2021/04/08 13:02:51;;;;;;;3.55;1.75;;;9.60;55.20;;;;;;4994764;28;20034;-64